createdAt,value
2018-12-11T00:00:14.855Z,2.50
2018-12-11T00:02:43.121Z,2.60
2018-12-11T00:05:11.483Z,2.60
2018-12-11T00:07:39.751Z,2.50
2018-12-11T00:10:08.020Z,2.50
2018-12-11T00:12:36.238Z,2.50
2018-12-11T00:15:05.231Z,2.40
2018-12-11T00:17:33.409Z,2.50
2018-12-11T00:20:01.681Z,2.50
2018-12-11T00:22:29.849Z,2.50
2018-12-11T00:24:58.095Z,2.60
2018-12-11T00:27:26.359Z,2.50
2018-12-11T00:29:54.563Z,2.50
2018-12-11T00:32:22.768Z,2.50
2018-12-11T00:34:50.983Z,2.50
2018-12-11T00:37:19.289Z,2.40
2018-12-11T00:39:47.550Z,2.50
2018-12-11T00:42:15.825Z,2.50
2018-12-11T00:44:44.022Z,2.60
2018-12-11T00:47:12.232Z,2.60
2018-12-11T00:49:40.513Z,2.60
2018-12-11T00:52:08.737Z,2.60
2018-12-11T00:54:37.152Z,2.70
2018-12-11T00:57:05.446Z,2.70
2018-12-11T00:59:33.682Z,2.80
2018-12-11T01:02:01.920Z,2.80
2018-12-11T01:04:30.094Z,2.90
2018-12-11T01:06:58.331Z,2.90
2018-12-11T01:09:26.618Z,2.90
2018-12-11T01:11:54.874Z,3.00
2018-12-11T01:14:23.162Z,2.90
2018-12-11T01:16:51.386Z,2.80
2018-12-11T01:19:19.679Z,2.80
2018-12-11T01:21:47.855Z,2.80
2018-12-11T01:24:16.121Z,2.80
2018-12-11T01:26:44.383Z,2.80
2018-12-11T01:29:12.574Z,2.80
2018-12-11T01:31:40.757Z,2.80
2018-12-11T01:34:08.940Z,2.80
2018-12-11T01:36:37.198Z,2.80
2018-12-11T01:39:08.542Z,2.80
2018-12-11T01:41:37.069Z,2.80
2018-12-11T01:44:05.333Z,2.80
2018-12-11T01:46:33.615Z,2.70
2018-12-11T01:49:01.817Z,2.80
2018-12-11T01:51:30.043Z,2.70
2018-12-11T01:53:58.303Z,2.80
2018-12-11T01:56:26.577Z,2.80
2018-12-11T01:58:54.803Z,2.80
2018-12-11T02:01:23.018Z,2.80
2018-12-11T02:03:51.443Z,2.80
2018-12-11T02:06:19.616Z,2.80
2018-12-11T02:08:47.745Z,2.80
2018-12-11T02:11:15.965Z,2.80
2018-12-11T02:13:44.196Z,2.80
2018-12-11T02:16:12.398Z,2.80
2018-12-11T02:18:40.591Z,2.80
2018-12-11T02:21:08.802Z,2.80
2018-12-11T02:23:36.910Z,2.80
2018-12-11T02:26:05.222Z,2.80
2018-12-11T02:28:33.473Z,2.90
2018-12-11T02:31:01.695Z,2.90
2018-12-11T02:33:29.949Z,2.90
2018-12-11T02:35:58.154Z,3.00
2018-12-11T02:38:26.411Z,3.00
2018-12-11T02:40:54.581Z,3.00
2018-12-11T02:43:22.816Z,3.10
2018-12-11T02:45:51.022Z,3.10
2018-12-11T02:48:19.250Z,3.10
2018-12-11T02:50:47.439Z,3.10
2018-12-11T02:53:15.679Z,3.20
2018-12-11T02:55:43.890Z,3.20
2018-12-11T02:58:12.098Z,3.20
2018-12-11T03:00:40.271Z,3.30
2018-12-11T03:03:08.551Z,3.20
2018-12-11T03:05:36.802Z,3.20
2018-12-11T03:08:05.048Z,3.20
2018-12-11T03:10:33.441Z,3.20
2018-12-11T03:13:01.687Z,3.30
2018-12-11T03:15:29.867Z,3.30
2018-12-11T03:17:58.103Z,3.30
2018-12-11T03:20:26.274Z,3.30
2018-12-11T03:22:54.560Z,3.30
2018-12-11T03:25:22.803Z,3.30
2018-12-11T03:27:50.961Z,3.30
2018-12-11T03:30:19.185Z,3.30
2018-12-11T03:32:47.428Z,3.40
2018-12-11T03:35:15.758Z,3.40
2018-12-11T03:37:44.007Z,3.40
2018-12-11T03:40:12.261Z,3.40
2018-12-11T03:42:40.467Z,3.40
2018-12-11T03:45:08.730Z,3.40
2018-12-11T03:47:36.889Z,3.30
2018-12-11T03:50:05.458Z,3.40
2018-12-11T03:52:33.799Z,3.40
2018-12-11T03:55:02.070Z,3.40
2018-12-11T03:57:30.328Z,3.40
2018-12-11T03:59:58.658Z,3.40
2018-12-11T04:02:26.973Z,3.40
2018-12-11T04:04:55.186Z,3.40
2018-12-11T04:07:23.436Z,3.40
2018-12-11T04:09:51.583Z,3.40
2018-12-11T04:12:20.141Z,3.40
2018-12-11T04:14:48.510Z,3.40
2018-12-11T04:17:16.950Z,3.30
2018-12-11T04:19:45.207Z,3.30
2018-12-11T04:22:13.503Z,3.20
2018-12-11T04:24:41.696Z,3.30
2018-12-11T04:27:09.914Z,3.30
2018-12-11T04:29:38.159Z,3.30
2018-12-11T04:32:06.423Z,3.30
2018-12-11T04:34:34.653Z,3.30
2018-12-11T04:37:02.888Z,3.30
2018-12-11T04:39:34.072Z,3.30
2018-12-11T04:42:01.273Z,3.30
2018-12-11T04:44:29.482Z,3.30
2018-12-11T04:46:57.630Z,3.30
2018-12-11T04:49:25.801Z,3.40
2018-12-11T04:51:54.037Z,3.30
2018-12-11T04:54:22.251Z,3.30
2018-12-11T04:56:50.467Z,3.30
2018-12-11T04:59:18.748Z,3.30
2018-12-11T05:01:46.904Z,3.30
2018-12-11T05:04:15.134Z,3.30
2018-12-11T05:06:43.466Z,3.30
2018-12-11T05:09:11.752Z,3.30
2018-12-11T05:11:39.903Z,3.30
2018-12-11T05:14:08.304Z,3.30
2018-12-11T05:16:36.547Z,3.40
2018-12-11T05:19:04.765Z,3.40
2018-12-11T05:21:33.090Z,3.40
2018-12-11T05:24:01.396Z,3.40
2018-12-11T05:26:29.622Z,3.40
2018-12-11T05:28:57.831Z,3.40
2018-12-11T05:31:26.086Z,3.40
2018-12-11T05:33:56.348Z,3.40
2018-12-11T05:36:24.607Z,3.40
2018-12-11T05:38:52.710Z,3.40
2018-12-11T05:41:20.990Z,3.40
2018-12-11T05:43:49.227Z,3.40
2018-12-11T05:46:17.381Z,3.40
2018-12-11T05:48:45.698Z,3.40
2018-12-11T05:51:13.915Z,3.40
2018-12-11T05:53:42.223Z,3.40
2018-12-11T05:56:10.445Z,3.40
2018-12-11T05:58:38.878Z,3.40
2018-12-11T06:01:07.150Z,3.40
2018-12-11T06:03:35.382Z,3.40
2018-12-11T06:06:03.691Z,3.40
2018-12-11T06:08:31.991Z,3.40
2018-12-11T06:11:00.180Z,3.40
2018-12-11T06:13:28.491Z,3.40
2018-12-11T06:15:56.746Z,3.40
2018-12-11T06:18:25.062Z,3.40
2018-12-11T06:20:53.237Z,3.40
2018-12-11T06:23:21.448Z,3.50
2018-12-11T06:25:49.739Z,3.40
2018-12-11T06:28:17.991Z,3.50
2018-12-11T06:30:46.365Z,3.50
2018-12-11T06:33:14.633Z,3.50
2018-12-11T06:35:43.050Z,3.50
2018-12-11T06:38:11.266Z,3.40
2018-12-11T06:40:39.490Z,3.40
2018-12-11T06:43:07.731Z,3.40
2018-12-11T06:45:36.020Z,3.30
2018-12-11T06:48:04.190Z,3.20
2018-12-11T06:50:32.362Z,3.20
2018-12-11T06:53:00.643Z,3.10
2018-12-11T06:55:28.897Z,3.10
2018-12-11T06:57:57.119Z,3.10
2018-12-11T07:00:25.344Z,3.10
2018-12-11T07:02:53.521Z,3.10
2018-12-11T07:05:21.812Z,3.10
2018-12-11T07:07:50.036Z,3.00
2018-12-11T07:10:18.153Z,3.10
2018-12-11T07:12:46.265Z,3.00
2018-12-11T07:15:14.495Z,3.00
2018-12-11T07:17:42.713Z,3.00
2018-12-11T07:20:10.943Z,3.00
2018-12-11T07:22:39.155Z,3.00
2018-12-11T07:25:07.454Z,3.00
2018-12-11T07:27:35.694Z,3.00
2018-12-11T07:30:04.369Z,3.00
2018-12-11T07:32:32.581Z,3.00
2018-12-11T07:35:00.708Z,3.00
2018-12-11T07:37:28.925Z,3.00
2018-12-11T07:39:57.168Z,3.00
2018-12-11T07:42:25.379Z,2.90
2018-12-11T07:44:53.597Z,2.90
2018-12-11T07:47:21.863Z,2.90
2018-12-11T07:49:50.104Z,3.00
2018-12-11T07:52:18.336Z,2.90
2018-12-11T07:54:46.536Z,2.90
2018-12-11T07:57:14.765Z,2.90
2018-12-11T07:59:43.087Z,2.90
2018-12-11T08:02:11.278Z,2.90
2018-12-11T08:04:39.474Z,2.90
2018-12-11T08:07:07.652Z,2.80
2018-12-11T08:09:35.888Z,2.90
2018-12-11T08:12:08.322Z,2.90
2018-12-11T08:14:34.339Z,2.90
2018-12-11T08:17:02.638Z,2.90
2018-12-11T08:19:30.901Z,2.90
2018-12-11T08:21:59.151Z,3.00
2018-12-11T08:24:27.411Z,3.00
2018-12-11T08:26:55.726Z,2.90
2018-12-11T08:29:24.082Z,2.90
2018-12-11T08:31:52.301Z,2.90
2018-12-11T08:34:20.547Z,2.80
2018-12-11T08:36:48.666Z,2.80
2018-12-11T08:39:16.932Z,2.80
2018-12-11T08:41:45.214Z,2.90
2018-12-11T08:44:13.477Z,2.80
2018-12-11T08:46:41.768Z,2.80
2018-12-11T08:49:09.997Z,2.90
2018-12-11T08:51:38.192Z,2.90
2018-12-11T08:54:06.524Z,3.00
2018-12-11T08:56:34.750Z,2.90
2018-12-11T08:59:06.473Z,3.00
2018-12-11T09:01:33.287Z,3.10
2018-12-11T09:04:02.660Z,3.00
2018-12-11T09:06:30.857Z,3.10
2018-12-11T09:08:59.050Z,3.00
2018-12-11T09:11:27.301Z,3.00
2018-12-11T09:13:55.549Z,3.00
2018-12-11T09:16:23.781Z,3.00
2018-12-11T09:18:52.051Z,2.90
2018-12-11T09:21:20.290Z,2.90
2018-12-11T09:23:48.566Z,2.90
2018-12-11T09:26:16.819Z,3.00
2018-12-11T09:28:44.933Z,3.00
2018-12-11T09:31:13.059Z,3.00
2018-12-11T09:33:41.432Z,3.00
2018-12-11T09:36:09.646Z,3.00
2018-12-11T09:38:37.891Z,3.00
2018-12-11T09:41:06.122Z,3.00
2018-12-11T09:43:34.427Z,3.00
2018-12-11T09:46:02.738Z,3.00
2018-12-11T09:48:30.979Z,3.00
2018-12-11T09:50:59.216Z,3.00
2018-12-11T09:53:27.415Z,3.10
2018-12-11T09:55:55.649Z,3.10
2018-12-11T09:58:24.129Z,3.10
2018-12-11T10:00:52.301Z,3.10
2018-12-11T10:03:20.582Z,3.10
2018-12-11T10:05:48.919Z,3.10
2018-12-11T10:08:17.134Z,3.20
2018-12-11T10:10:45.349Z,3.10
2018-12-11T10:13:13.693Z,3.20
2018-12-11T10:15:41.993Z,3.10
2018-12-11T10:18:10.266Z,3.10
2018-12-11T10:20:38.520Z,3.10
2018-12-11T10:23:07.138Z,3.10
2018-12-11T10:25:35.427Z,3.10
2018-12-11T10:28:03.679Z,3.10
2018-12-11T10:30:37.320Z,3.10
2018-12-11T10:33:05.595Z,3.20
2018-12-11T10:35:33.798Z,3.30
2018-12-11T10:38:02.161Z,3.20
2018-12-11T10:40:30.419Z,3.20
2018-12-11T10:42:58.619Z,3.20
2018-12-11T10:45:26.834Z,3.20
2018-12-11T10:47:55.077Z,3.10
2018-12-11T10:50:23.325Z,3.10
2018-12-11T10:52:51.567Z,3.10
2018-12-11T10:55:19.701Z,3.10
2018-12-11T10:57:48.062Z,3.20
2018-12-11T11:00:21.801Z,3.20
2018-12-11T11:02:55.566Z,3.30
2018-12-11T11:05:23.794Z,3.20
2018-12-11T11:07:51.955Z,3.20
2018-12-11T11:10:20.316Z,3.20
2018-12-11T11:12:48.525Z,3.20
2018-12-11T11:15:16.813Z,3.20
2018-12-11T11:17:45.093Z,3.20
2018-12-11T11:20:13.364Z,3.20
2018-12-11T11:22:41.638Z,3.20
2018-12-11T11:25:09.869Z,3.20
2018-12-11T11:27:38.087Z,3.10
2018-12-11T11:30:07.814Z,3.20
2018-12-11T11:32:36.110Z,3.20
2018-12-11T11:35:05.147Z,3.20
2018-12-11T11:37:33.484Z,3.20
2018-12-11T11:40:01.710Z,3.30
2018-12-11T11:42:30.103Z,3.20
2018-12-11T11:44:58.531Z,3.30
2018-12-11T11:47:26.748Z,3.30
2018-12-11T11:49:55.047Z,3.20
2018-12-11T11:52:23.448Z,3.30
2018-12-11T11:54:51.742Z,3.20
2018-12-11T11:57:19.943Z,3.20
2018-12-11T11:59:48.208Z,3.30
2018-12-11T12:02:16.421Z,3.30
2018-12-11T12:04:44.670Z,3.30
2018-12-11T12:07:12.924Z,3.30
2018-12-11T12:09:41.159Z,3.30
2018-12-11T12:12:09.495Z,3.30
2018-12-11T12:14:37.726Z,3.20
2018-12-11T12:17:05.997Z,3.20
2018-12-11T12:19:34.251Z,3.20
2018-12-11T12:22:02.526Z,3.30
2018-12-11T12:24:30.729Z,3.30
2018-12-11T12:26:58.985Z,3.30
2018-12-11T12:29:27.287Z,3.30
2018-12-11T12:31:55.506Z,3.30
2018-12-11T12:34:23.616Z,3.30
2018-12-11T12:36:51.895Z,3.20
2018-12-11T12:39:20.143Z,3.20
2018-12-11T12:41:48.350Z,3.30
2018-12-11T12:44:16.531Z,3.40
2018-12-11T12:46:44.816Z,3.40
2018-12-11T12:49:13.067Z,3.40
2018-12-11T12:51:41.430Z,3.40
2018-12-11T12:54:09.627Z,3.30
2018-12-11T12:56:37.863Z,3.30
2018-12-11T12:59:06.085Z,3.30
2018-12-11T13:01:34.363Z,3.30
2018-12-11T13:04:02.578Z,3.30
2018-12-11T13:06:30.970Z,3.30
2018-12-11T13:08:59.349Z,3.30
2018-12-11T13:11:27.611Z,3.30
2018-12-11T13:13:55.815Z,3.30
2018-12-11T13:16:24.006Z,3.20
2018-12-11T13:18:52.291Z,3.20
2018-12-11T13:21:20.530Z,3.20
2018-12-11T13:23:48.747Z,3.30
2018-12-11T13:26:17.004Z,3.30
2018-12-11T13:28:45.211Z,3.30
2018-12-11T13:31:13.435Z,3.30
2018-12-11T13:33:41.633Z,3.30
2018-12-11T13:36:09.918Z,3.30
2018-12-11T13:38:38.175Z,3.30
2018-12-11T13:41:06.518Z,3.30
2018-12-11T13:43:34.942Z,3.30
2018-12-11T13:46:03.275Z,3.40
2018-12-11T13:48:31.614Z,3.40
2018-12-11T13:50:59.909Z,3.30
2018-12-11T13:53:28.146Z,3.30
2018-12-11T13:55:56.390Z,3.40
2018-12-11T13:58:24.761Z,3.30
2018-12-11T14:00:53.096Z,3.30
2018-12-11T14:03:21.350Z,3.30
2018-12-11T14:05:49.589Z,3.30
2018-12-11T14:08:17.831Z,3.30
2018-12-11T14:10:46.078Z,3.40
2018-12-11T14:13:14.350Z,3.30
2018-12-11T14:15:42.674Z,3.40
2018-12-11T14:18:10.852Z,3.40
2018-12-11T14:20:39.072Z,3.30
2018-12-11T14:23:07.331Z,3.40
2018-12-11T14:25:35.555Z,3.40
2018-12-11T14:28:03.774Z,3.40
2018-12-11T14:30:32.036Z,3.30
2018-12-11T14:33:00.260Z,3.30
2018-12-11T14:35:28.495Z,3.40
2018-12-11T14:37:56.727Z,3.40
2018-12-11T14:40:24.976Z,3.50
2018-12-11T14:42:53.218Z,3.50
2018-12-11T14:45:21.420Z,3.50
2018-12-11T14:47:49.674Z,3.40
2018-12-11T14:50:17.898Z,3.30
2018-12-11T14:52:46.110Z,3.30
2018-12-11T14:55:14.374Z,3.30
2018-12-11T14:57:42.611Z,3.30
2018-12-11T15:00:11.130Z,3.30
2018-12-11T15:02:39.841Z,3.40
2018-12-11T15:05:08.780Z,3.40
2018-12-11T15:07:37.075Z,3.30
2018-12-11T15:10:07.706Z,3.30
2018-12-11T15:12:36.007Z,3.30
2018-12-11T15:15:04.804Z,3.30
2018-12-11T15:17:33.050Z,3.20
2018-12-11T15:20:01.296Z,3.30
2018-12-11T15:22:29.483Z,3.30
2018-12-11T15:24:57.681Z,3.30
2018-12-11T15:27:25.914Z,3.30
2018-12-11T15:29:54.138Z,3.30
2018-12-11T15:32:22.408Z,3.30
2018-12-11T15:34:50.854Z,3.30
2018-12-11T15:37:19.083Z,3.30
2018-12-11T15:39:47.474Z,3.20
2018-12-11T15:42:15.687Z,3.30
2018-12-11T15:44:44.094Z,3.30
2018-12-11T15:47:12.329Z,3.30
2018-12-11T15:49:40.710Z,3.20
2018-12-11T15:52:09.022Z,3.20
2018-12-11T15:54:37.389Z,3.30
2018-12-11T15:57:05.709Z,3.20
2018-12-11T15:59:33.986Z,3.10
2018-12-11T16:02:02.180Z,3.10
2018-12-11T16:04:30.534Z,3.10
2018-12-11T16:06:58.728Z,3.10
2018-12-11T16:09:33.124Z,3.10
2018-12-11T16:12:01.489Z,3.20
2018-12-11T16:14:29.769Z,3.20
2018-12-11T16:17:01.661Z,3.20
2018-12-11T16:19:30.036Z,3.10
2018-12-11T16:21:58.277Z,3.20
2018-12-11T16:24:27.343Z,3.10
2018-12-11T16:26:55.683Z,3.10
2018-12-11T16:29:23.951Z,3.10
2018-12-11T16:31:52.127Z,3.10
2018-12-11T16:34:21.155Z,3.10
2018-12-11T16:36:49.534Z,3.10
2018-12-11T16:39:17.761Z,3.00
2018-12-11T16:41:46.012Z,3.00
2018-12-11T16:44:14.367Z,3.00
2018-12-11T16:46:42.760Z,3.00
2018-12-11T16:49:12.567Z,3.00
2018-12-11T16:51:40.902Z,2.90
2018-12-11T16:56:49.818Z,2.80
2018-12-11T16:59:18.114Z,2.90
2018-12-11T17:01:46.397Z,2.80
2018-12-11T17:04:14.725Z,2.80
2018-12-11T17:06:42.992Z,2.80
2018-12-11T17:09:14.481Z,2.90
2018-12-11T17:11:42.799Z,2.80
2018-12-11T17:14:11.026Z,2.80
2018-12-11T17:16:39.336Z,2.80
2018-12-11T17:19:07.558Z,2.70
2018-12-11T17:21:35.857Z,2.80
2018-12-11T17:24:04.271Z,2.80
2018-12-11T17:26:32.512Z,2.80
2018-12-11T17:29:00.646Z,2.90
2018-12-11T17:31:28.867Z,2.90
2018-12-11T17:33:57.553Z,2.90
2018-12-11T17:36:26.262Z,2.80
2018-12-11T17:38:54.491Z,2.90
2018-12-11T17:41:22.924Z,3.00
2018-12-11T17:43:51.161Z,3.00
2018-12-11T17:46:19.444Z,3.00
2018-12-11T17:48:47.747Z,2.90
2018-12-11T17:51:19.285Z,2.90
2018-12-11T17:53:47.834Z,2.90
2018-12-11T17:56:16.190Z,2.90
2018-12-11T17:58:44.410Z,2.90
2018-12-11T18:01:12.733Z,2.90
2018-12-11T18:03:40.954Z,2.90
2018-12-11T18:06:09.235Z,2.90
2018-12-11T18:08:39.264Z,3.00
2018-12-11T18:11:11.209Z,3.00
2018-12-11T18:13:39.736Z,3.00
2018-12-11T18:16:11.871Z,3.00
2018-12-11T18:18:51.998Z,3.00
2018-12-11T18:21:24.825Z,3.00
2018-12-11T18:23:59.414Z,3.00
2018-12-11T18:26:28.327Z,3.00
2018-12-11T18:28:58.803Z,3.00
2018-12-11T18:31:27.431Z,2.90
2018-12-11T18:33:57.035Z,3.00
2018-12-11T18:36:25.735Z,3.00
2018-12-11T18:38:54.646Z,3.00
2018-12-11T18:41:26.245Z,3.00
2018-12-11T18:43:55.039Z,3.00
2018-12-11T18:46:23.386Z,3.00
2018-12-11T18:48:53.975Z,3.00
2018-12-11T18:51:22.930Z,3.00
2018-12-11T18:53:51.290Z,3.10
2018-12-11T18:56:19.788Z,3.10
2018-12-11T18:58:49.229Z,3.10
2018-12-11T19:01:17.592Z,3.10
2018-12-11T19:03:49.220Z,3.20
2018-12-11T19:06:16.721Z,3.10
2018-12-11T19:08:46.996Z,3.20
2018-12-11T19:11:15.290Z,3.10
2018-12-11T19:13:43.653Z,3.20
2018-12-11T19:16:13.114Z,3.10
2018-12-11T19:18:42.351Z,3.10
2018-12-11T19:21:10.585Z,3.10
2018-12-11T19:24:46.459Z,3.10
2018-12-11T19:27:14.701Z,3.10
2018-12-11T19:29:42.985Z,3.10
2018-12-11T19:32:11.275Z,3.00
2018-12-11T19:34:39.458Z,3.10
2018-12-11T19:37:07.727Z,3.00
2018-12-11T19:39:35.986Z,3.00
2018-12-11T19:42:04.241Z,3.00
2018-12-11T19:44:32.523Z,3.00
2018-12-11T19:47:00.888Z,3.00
2018-12-11T19:49:29.112Z,3.00
2018-12-11T19:51:57.734Z,3.00
2018-12-11T19:54:25.954Z,3.10
2018-12-11T19:56:54.308Z,3.00
2018-12-11T19:59:22.529Z,3.00
2018-12-11T20:01:50.853Z,3.00
2018-12-11T20:04:19.278Z,3.00
2018-12-11T20:06:47.628Z,3.00
2018-12-11T20:09:15.968Z,3.00
2018-12-11T20:11:44.191Z,3.00
2018-12-11T20:14:12.430Z,2.90
2018-12-11T20:16:40.704Z,3.00
2018-12-11T20:19:09.193Z,3.00
2018-12-11T20:21:37.671Z,3.00
2018-12-11T20:24:05.984Z,3.00
2018-12-11T20:26:39.408Z,3.00
2018-12-11T20:29:04.547Z,3.00
2018-12-11T20:31:32.787Z,3.00
2018-12-11T20:34:01.767Z,2.90
2018-12-11T20:36:29.977Z,3.00
2018-12-11T20:38:58.315Z,2.90
2018-12-11T20:41:26.502Z,2.90
2018-12-11T20:43:54.737Z,2.90
2018-12-11T20:46:23.031Z,2.90
2018-12-11T20:48:51.382Z,2.90
2018-12-11T20:51:19.606Z,2.90
2018-12-11T20:53:47.807Z,2.90
2018-12-11T20:56:16.040Z,2.90
2018-12-11T20:58:44.241Z,2.90
2018-12-11T21:01:12.563Z,2.90
2018-12-11T21:03:40.839Z,2.90
2018-12-11T21:06:09.027Z,2.90
2018-12-11T21:08:37.314Z,2.90
2018-12-11T21:11:05.559Z,3.00
2018-12-11T21:13:33.769Z,3.00
2018-12-11T21:16:02.318Z,2.90
2018-12-11T21:18:30.557Z,2.80
2018-12-11T21:20:58.974Z,2.80
2018-12-11T21:23:27.502Z,2.80
2018-12-11T21:25:57.097Z,2.80
2018-12-11T21:28:25.668Z,2.80
2018-12-11T21:30:53.955Z,2.80
2018-12-11T21:33:22.231Z,2.80
2018-12-11T21:35:50.500Z,2.80
2018-12-11T21:38:19.886Z,2.80
2018-12-11T21:40:48.177Z,2.80
2018-12-11T21:43:16.430Z,2.70
2018-12-11T21:45:45.085Z,2.70
2018-12-11T21:48:13.415Z,2.80
2018-12-11T21:50:41.819Z,2.90
2018-12-11T21:53:10.084Z,2.90
2018-12-11T21:55:38.290Z,2.80
2018-12-11T21:58:06.764Z,2.80
2018-12-11T22:00:34.989Z,2.80
2018-12-11T22:03:03.445Z,2.80
2018-12-11T22:05:31.711Z,2.80
2018-12-11T22:07:59.905Z,2.80
2018-12-11T22:10:28.323Z,2.70
2018-12-11T22:12:56.707Z,2.70
2018-12-11T22:15:24.915Z,2.70
2018-12-11T22:17:53.042Z,2.70
2018-12-11T22:20:21.326Z,2.70
2018-12-11T22:22:49.920Z,2.70
2018-12-11T22:25:18.319Z,2.70
2018-12-11T22:27:46.487Z,2.70
2018-12-11T22:30:14.899Z,2.70
2018-12-11T22:32:43.377Z,2.70
2018-12-11T22:35:11.677Z,2.70
2018-12-11T22:37:39.811Z,2.60
2018-12-11T22:40:08.028Z,2.70
2018-12-11T22:42:36.229Z,2.70
2018-12-11T22:45:04.789Z,2.70
2018-12-11T22:47:32.983Z,2.70
2018-12-11T22:50:01.286Z,2.60
2018-12-11T22:52:29.966Z,2.60
2018-12-11T22:54:58.498Z,2.60
2018-12-11T22:57:26.796Z,2.60
2018-12-11T22:59:54.961Z,2.60
2018-12-11T23:02:24.580Z,2.60
2018-12-11T23:04:52.797Z,2.60
2018-12-11T23:07:21.048Z,2.60
2018-12-11T23:09:49.307Z,2.60
2018-12-11T23:12:17.558Z,2.50
2018-12-11T23:14:45.777Z,2.50
2018-12-11T23:17:13.978Z,2.50
2018-12-11T23:19:42.259Z,2.50
2018-12-11T23:22:10.544Z,2.50
2018-12-11T23:24:38.982Z,2.50
2018-12-11T23:27:07.274Z,2.50
2018-12-11T23:29:35.519Z,2.50
2018-12-11T23:32:03.738Z,2.60
2018-12-11T23:34:31.902Z,2.50
2018-12-11T23:37:00.183Z,2.50
2018-12-11T23:39:28.330Z,2.50
2018-12-11T23:41:56.538Z,2.60
2018-12-11T23:44:24.690Z,2.60
2018-12-11T23:46:52.854Z,2.60
2018-12-11T23:49:21.054Z,2.60
2018-12-11T23:51:49.306Z,2.60
2018-12-11T23:54:17.538Z,2.60
2018-12-11T23:56:45.682Z,2.60
2018-12-11T23:59:13.925Z,2.70
